LiveATC.Net - Listen to live air traffic control over the Internet!


ICAO: ESPA  IATA: LLA   Airport: Lulea Airport
City: Lulea
Country: Sweden   Continent: Europe
ESPA METAR Weather: ESPA 121220Z 18011KT 9999 BKN020 02/01 Q0995
ESPA Flight Activity (FlightAware)

ESPA Twr/Control
Feed Status: UP   Listeners: 1
Listen in your browser - HTML5 player (in browser, HTML5)
Click here to listen with your own player (launches your MP3 player)
Archive Access: ESPA Twr/Control
FacilityFrequency
Emergency/Guard121.500
Kallax Control125.450
Kallax Tower128.200
Sweden Control North131.050

NOTICE

Unauthorized use prohibited. See LiveATC.net Terms of Service


Airport/ARTCC Code
Frequency Search
(e.g., 124.400, 128.75)
Site-wide search
 


Browse Feeds
Top 50 Feeds
Coverage Map
Bad Weather Areas

LiveATC FAQ
Offer LiveATC feed
Contact LiveATC.net
Press Inquiries

LiveATC on iPhone
LiveATC on Android

Windows Phone
Windows 8/10

LiveATC Mobile
(Mobile browser)

ATC Audio Archives
Interesting Recordings

LiveATC Forums


Home Page
About LiveATC.net
Make a Donation
Terms of Use
Privacy Policy

Canadian Air Freqs

AIRMETs/SIGMETs

FAA Airport Status
Nat'l Airspace Status
Arrival Demand Charts


Server Software By:
Icecast.org
Liquidsoap